Time;durP1;ratioP1;P1;durP2;ratioP2;P2;SDS_P1;SDS_P2;PMS_P1;PMS_P2;Temp;Humidity;BMP_temperature;BMP_pressure;BME280_temperature;BME280_humidity;BME280_pressure;Samples;Min_cycle;Max_cycle;Signal;HPM_P1;HPM_P2
2023/08/28 00:01:31;;;;;;;4.43;3.70;;;;;;;;;;4896127;29;20646;-66
2023/08/28 00:03:59;;;;;;;4.37;3.60;;;;;;;;;;4871026;29;20681;-66
2023/08/28 00:06:28;;;;;;;5.13;3.30;;;;;;;;;;4878777;29;20970;-66
2023/08/28 00:08:56;;;;;;;3.87;2.83;;;;;;;;;;4884330;29;20634;-66
2023/08/28 00:11:24;;;;;;;4.23;3.63;;;;;;;;;;4877027;29;21009;-67
2023/08/28 00:13:54;;;;;;;5.90;3.80;;;;;;;;;;4876124;29;20601;-66
2023/08/28 00:16:22;;;;;;;3.53;3.23;;;;;;;;;;4874070;29;20633;-66
2023/08/28 00:18:50;;;;;;;4.40;3.27;;;;;;;;;;4879331;29;20661;-67
2023/08/28 00:21:19;;;;;;;6.37;3.20;;;;;;;;;;4875158;29;20605;-67
2023/08/28 00:23:47;;;;;;;4.53;3.43;;;;;;;;;;4870889;29;21210;-66
2023/08/28 00:26:15;;;;;;;4.50;3.00;;;;;;;;;;4877837;29;20979;-66
2023/08/28 00:28:43;;;;;;;2.90;2.80;;;;;;;;;;4885077;29;20639;-66
2023/08/28 00:31:13;;;;;;;4.97;3.40;;;;;;;;;;4877635;29;20673;-66
2023/08/28 00:33:41;;;;;;;3.77;3.50;;;;;;;;;;4863512;29;20632;-66
2023/08/28 00:36:10;;;;;;;3.50;3.20;;;;;;;;;;4863398;29;21215;-66
2023/08/28 00:38:38;;;;;;;10.00;3.57;;;;;;;;;;4893600;29;20637;-67
2023/08/28 00:41:07;;;;;;;4.00;3.60;;;;;;;;;;4872319;29;20641;-66
2023/08/28 00:43:36;;;;;;;4.20;2.87;;;;;;;;;;4883618;29;20706;-66
2023/08/28 00:46:04;;;;;;;3.17;2.93;;;;;;;;;;4869781;29;20637;-66
2023/08/28 00:48:34;;;;;;;4.93;3.70;;;;;;;;;;4882055;29;20622;-66
2023/08/28 00:51:03;;;;;;;5.13;3.30;;;;;;;;;;4875487;29;20606;-66
2023/08/28 00:53:32;;;;;;;4.87;3.47;;;;;;;;;;4878060;29;20626;-66
2023/08/28 00:56:00;;;;;;;5.43;3.47;;;;;;;;;;4894315;29;20646;-66
2023/08/28 00:58:29;;;;;;;3.57;3.10;;;;;;;;;;4878199;29;20630;-66
2023/08/28 01:00:57;;;;;;;10.70;4.07;;;;;;;;;;4880525;29;20665;-63
2023/08/28 01:03:25;;;;;;;4.27;3.47;;;;;;;;;;4886309;29;20744;-65
2023/08/28 01:06:02;;;;;;;4.40;4.00;;;;;;;;;;4908616;29;20672;-62
2023/08/28 01:08:32;;;;;;;3.60;3.30;;;;;;;;;;4908455;29;20672;-63
2023/08/28 01:11:06;;;;;;;4.30;3.93;;;;;;;;;;4889937;29;20670;-65
2023/08/28 01:13:37;;;;;;;4.40;3.33;;;;;;;;;;4874081;29;20661;-62
2023/08/28 01:16:06;;;;;;;3.97;3.70;;;;;;;;;;4901750;29;20666;-65
2023/08/28 01:18:35;;;;;;;6.90;4.67;;;;;;;;;;4893272;29;20699;-63
2023/08/28 01:21:05;;;;;;;3.67;3.37;;;;;;;;;;4890120;29;20790;-64
2023/08/28 01:23:37;;;;;;;3.50;3.30;;;;;;;;;;4905299;29;21026;-62
2023/08/28 01:26:07;;;;;;;4.27;3.83;;;;;;;;;;4906959;29;20661;-63
2023/08/28 01:28:35;;;;;;;4.10;3.70;;;;;;;;;;4903585;29;20713;-62
2023/08/28 01:31:05;;;;;;;4.17;3.83;;;;;;;;;;4900883;29;20705;-62
2023/08/28 01:33:35;;;;;;;4.13;3.73;;;;;;;;;;4882478;29;20714;-62
2023/08/28 01:36:11;;;;;;;5.63;3.47;;;;;;;;;;4907096;29;20709;-63
2023/08/28 01:38:43;;;;;;;7.23;4.27;;;;;;;;;;4905817;29;21422;-62
2023/08/28 01:41:13;;;;;;;4.87;3.60;;;;;;;;;;4891363;29;20710;-62
2023/08/28 01:43:44;;;;;;;3.70;3.50;;;;;;;;;;4890279;29;20630;-62
2023/08/28 01:46:13;;;;;;;3.63;2.83;;;;;;;;;;4874041;29;20753;-63
2023/08/28 01:48:44;;;;;;;7.10;2.90;;;;;;;;;;4889628;29;20668;-63
2023/08/28 01:51:12;;;;;;;3.60;3.30;;;;;;;;;;4897589;29;20695;-63
2023/08/28 01:53:41;;;;;;;3.73;3.53;;;;;;;;;;4890356;29;20778;-62
2023/08/28 01:56:18;;;;;;;6.03;3.27;;;;;;;;;;4873985;29;20689;-63
2023/08/28 01:58:50;;;;;;;3.63;3.33;;;;;;;;;;4876954;29;20676;-63
2023/08/28 02:01:18;;;;;;;2.70;2.50;;;;;;;;;;4902675;29;20680;-62
2023/08/28 02:03:46;;;;;;;2.90;2.70;;;;;;;;;;4883514;29;20741;-64
2023/08/28 02:06:15;;;;;;;4.07;2.80;;;;;;;;;;4895860;29;20690;-65
2023/08/28 02:08:43;;;;;;;2.83;2.40;;;;;;;;;;4886840;29;20697;-63
2023/08/28 02:11:11;;;;;;;2.97;2.77;;;;;;;;;;4889415;29;20690;-63
2023/08/28 02:13:39;;;;;;;2.30;2.20;;;;;;;;;;4891335;29;20720;-62
2023/08/28 02:16:10;;;;;;;2.53;2.43;;;;;;;;;;4889956;29;20727;-62
2023/08/28 02:18:40;;;;;;;2.30;2.20;;;;;;;;;;4890217;29;20677;-63
2023/08/28 02:21:08;;;;;;;2.53;2.13;;;;;;;;;;4892307;29;20698;-63
2023/08/28 02:23:36;;;;;;;2.80;2.00;;;;;;;;;;4908478;29;20674;-65
2023/08/28 02:26:05;;;;;;;2.37;2.27;;;;;;;;;;4882768;29;20999;-62
2023/08/28 02:28:34;;;;;;;2.23;2.03;;;;;;;;;;4890872;29;20701;-62
2023/08/28 02:31:04;;;;;;;2.10;1.60;;;;;;;;;;4896555;29;20680;-62
2023/08/28 02:33:35;;;;;;;2.30;2.10;;;;;;;;;;4884013;29;21215;-64
2023/08/28 02:36:03;;;;;;;1.70;1.60;;;;;;;;;;4901071;29;20701;-62
2023/08/28 02:38:31;;;;;;;7.50;1.90;;;;;;;;;;4890669;29;20809;-62
2023/08/28 02:41:07;;;;;;;4.33;2.00;;;;;;;;;;4901619;29;20724;-62
2023/08/28 02:43:35;;;;;;;2.47;2.27;;;;;;;;;;4908215;29;20656;-63
2023/08/28 02:46:04;;;;;;;2.60;2.00;;;;;;;;;;4906401;29;20764;-63
2023/08/28 02:48:32;;;;;;;7.80;2.33;;;;;;;;;;4884603;29;20646;-62
2023/08/28 02:51:02;;;;;;;2.93;2.00;;;;;;;;;;4874312;29;20706;-62
2023/08/28 02:53:30;;;;;;;4.33;2.33;;;;;;;;;;4891596;29;20721;-62
2023/08/28 02:56:11;;;;;;;2.20;2.10;;;;;;;;;;4906308;29;20721;-63
2023/08/28 02:58:40;;;;;;;2.23;2.03;;;;;;;;;;4906874;29;20652;-62
2023/08/28 03:01:08;;;;;;;1.70;1.60;;;;;;;;;;4876521;29;20696;-64
2023/08/28 03:03:36;;;;;;;3.00;1.73;;;;;;;;;;4906315;29;20729;-63
2023/08/28 03:06:06;;;;;;;2.20;1.77;;;;;;;;;;4884872;29;20694;-62
2023/08/28 03:08:34;;;;;;;2.97;2.23;;;;;;;;;;4888014;29;20662;-62
2023/08/28 03:11:02;;;;;;;3.53;2.10;;;;;;;;;;4887503;29;20678;-63
2023/08/28 03:13:31;;;;;;;6.67;4.60;;;;;;;;;;4872345;29;20675;-62
2023/08/28 03:15:59;;;;;;;2.73;2.30;;;;;;;;;;4887723;29;20686;-65
2023/08/28 03:18:28;;;;;;;3.63;1.70;;;;;;;;;;4888992;29;20689;-62
2023/08/28 03:20:56;;;;;;;4.20;1.73;;;;;;;;;;4905917;29;20709;-63
2023/08/28 03:23:26;;;;;;;4.30;1.93;;;;;;;;;;4887238;29;20710;-62
2023/08/28 03:25:55;;;;;;;4.30;1.77;;;;;;;;;;4887401;29;20743;-66
2023/08/28 03:28:23;;;;;;;1.70;1.60;;;;;;;;;;4887887;29;20665;-62
2023/08/28 03:30:51;;;;;;;1.63;1.53;;;;;;;;;;4888539;29;20690;-62
2023/08/28 03:33:20;;;;;;;2.13;1.83;;;;;;;;;;4871867;29;20742;-63
2023/08/28 03:35:48;;;;;;;3.47;2.13;;;;;;;;;;4894633;29;20696;-63
2023/08/28 03:38:16;;;;;;;5.10;2.00;;;;;;;;;;4896589;29;20706;-63
2023/08/28 03:40:46;;;;;;;2.87;1.77;;;;;;;;;;4887709;29;20693;-63
2023/08/28 03:43:14;;;;;;;1.87;1.77;;;;;;;;;;4890137;29;20757;-66
2023/08/28 03:45:43;;;;;;;2.73;1.67;;;;;;;;;;4891378;29;20685;-63
2023/08/28 03:48:11;;;;;;;2.60;2.23;;;;;;;;;;4871984;29;20678;-63
2023/08/28 03:50:39;;;;;;;3.47;2.10;;;;;;;;;;4887135;29;20665;-63
2023/08/28 03:53:08;;;;;;;3.10;2.13;;;;;;;;;;4858467;29;21269;-62
2023/08/28 03:55:37;;;;;;;2.23;1.80;;;;;;;;;;4888804;29;20708;-63
2023/08/28 03:58:07;;;;;;;2.80;2.10;;;;;;;;;;4888097;29;20691;-65
2023/08/28 04:00:35;;;;;;;2.53;2.03;;;;;;;;;;4891354;29;20688;-63
2023/08/28 04:03:04;;;;;;;2.23;1.73;;;;;;;;;;4901079;29;20746;-63
2023/08/28 04:05:33;;;;;;;3.83;2.27;;;;;;;;;;4877200;29;21232;-64
2023/08/28 04:08:02;;;;;;;5.40;2.03;;;;;;;;;;4905709;29;20702;-63
2023/08/28 04:10:31;;;;;;;4.10;2.03;;;;;;;;;;4886642;29;20733;-65
2023/08/28 04:13:00;;;;;;;2.50;2.33;;;;;;;;;;4904658;29;20680;-63
2023/08/28 04:15:31;;;;;;;3.57;2.03;;;;;;;;;;4902750;29;20664;-62
2023/08/28 04:17:59;;;;;;;3.90;2.47;;;;;;;;;;4870123;29;20621;-63
2023/08/28 04:20:28;;;;;;;2.83;1.80;;;;;;;;;;4903869;29;20688;-63
2023/08/28 04:22:56;;;;;;;4.27;2.40;;;;;;;;;;4887023;29;20722;-65
2023/08/28 04:25:25;;;;;;;2.13;2.03;;;;;;;;;;4871122;29;21294;-63
2023/08/28 04:27:54;;;;;;;8.13;2.60;;;;;;;;;;4892486;29;20790;-63
2023/08/28 04:30:22;;;;;;;3.40;2.10;;;;;;;;;;4905213;29;20608;-64
2023/08/28 04:32:52;;;;;;;2.80;2.47;;;;;;;;;;4902729;29;21274;-62
2023/08/28 04:35:20;;;;;;;4.10;2.70;;;;;;;;;;4881994;29;20720;-62
2023/08/28 04:37:49;;;;;;;2.70;2.00;;;;;;;;;;4894041;29;21234;-63
2023/08/28 04:40:17;;;;;;;2.80;2.50;;;;;;;;;;4902012;29;20697;-63
2023/08/28 04:42:45;;;;;;;3.87;2.30;;;;;;;;;;4890924;29;20680;-64
2023/08/28 04:45:13;;;;;;;4.03;2.10;;;;;;;;;;4874028;29;20650;-63
2023/08/28 04:47:42;;;;;;;2.77;1.97;;;;;;;;;;4908032;29;20733;-62
2023/08/28 04:50:11;;;;;;;2.13;2.00;;;;;;;;;;4903600;29;20669;-62
2023/08/28 04:52:39;;;;;;;4.07;2.57;;;;;;;;;;4890539;29;20707;-62
2023/08/28 04:55:08;;;;;;;4.27;1.70;;;;;;;;;;4891013;29;20693;-63
2023/08/28 04:57:36;;;;;;;4.20;1.50;;;;;;;;;;4895468;29;20665;-63
2023/08/28 05:00:07;;;;;;;1.80;1.70;;;;;;;;;;4884017;29;20718;-62
2023/08/28 05:02:35;;;;;;;2.80;2.20;;;;;;;;;;4890606;29;20650;-64
2023/08/28 05:05:04;;;;;;;3.73;1.90;;;;;;;;;;4891614;29;20787;-63
2023/08/28 05:07:33;;;;;;;2.20;2.03;;;;;;;;;;4895901;29;20694;-63
2023/08/28 05:10:04;;;;;;;2.07;1.87;;;;;;;;;;4890435;29;20683;-62
2023/08/28 05:12:32;;;;;;;5.50;2.00;;;;;;;;;;4882252;29;20701;-67
2023/08/28 05:15:00;;;;;;;3.13;2.30;;;;;;;;;;4887293;29;21164;-66
2023/08/28 05:17:29;;;;;;;2.53;2.30;;;;;;;;;;4864495;29;20980;-67
2023/08/28 05:19:57;;;;;;;4.97;2.00;;;;;;;;;;4888375;29;20619;-66
2023/08/28 05:22:25;;;;;;;2.40;2.20;;;;;;;;;;4891311;29;20681;-66
2023/08/28 05:24:55;;;;;;;2.90;1.87;;;;;;;;;;4869266;29;20663;-66
2023/08/28 05:27:23;;;;;;;4.53;1.90;;;;;;;;;;4886937;29;20606;-66
2023/08/28 05:29:53;;;;;;;2.50;2.30;;;;;;;;;;4887889;29;20639;-68
2023/08/28 05:32:22;;;;;;;4.73;1.90;;;;;;;;;;4865148;29;20595;-67
2023/08/28 05:34:50;;;;;;;2.17;2.00;;;;;;;;;;4891718;29;20636;-67
2023/08/28 05:37:18;;;;;;;2.13;1.93;;;;;;;;;;4887223;29;20622;-66
2023/08/28 05:39:47;;;;;;;1.87;1.77;;;;;;;;;;4888646;29;20598;-66
2023/08/28 05:42:17;;;;;;;1.90;1.70;;;;;;;;;;4873050;29;21122;-66
2023/08/28 05:44:45;;;;;;;4.40;2.17;;;;;;;;;;4887956;29;20659;-66
2023/08/28 05:47:14;;;;;;;2.60;2.40;;;;;;;;;;4872995;29;20645;-66
2023/08/28 05:49:42;;;;;;;2.10;2.00;;;;;;;;;;4890909;29;20630;-66
2023/08/28 05:52:11;;;;;;;2.30;1.83;;;;;;;;;;4871281;29;20590;-67
2023/08/28 05:54:39;;;;;;;2.83;1.97;;;;;;;;;;4873418;29;20608;-66
2023/08/28 05:57:08;;;;;;;2.80;2.10;;;;;;;;;;4887447;29;20993;-67
2023/08/28 05:59:37;;;;;;;2.70;2.03;;;;;;;;;;4888381;29;20951;-67
2023/08/28 06:02:06;;;;;;;3.93;2.40;;;;;;;;;;4871551;29;20644;-66
2023/08/28 06:04:35;;;;;;;2.40;1.70;;;;;;;;;;4888656;29;20659;-66
2023/08/28 06:07:04;;;;;;;2.70;1.77;;;;;;;;;;4870052;29;20604;-66
2023/08/28 06:09:32;;;;;;;1.95;1.80;;;;;;;;;;4889404;29;20764;-67
2023/08/28 06:12:00;;;;;;;4.90;2.10;;;;;;;;;;4888983;29;20264;-67
2023/08/28 06:14:29;;;;;;;2.20;2.00;;;;;;;;;;4886815;29;20607;-68
2023/08/28 06:16:59;;;;;;;5.23;2.13;;;;;;;;;;4889993;29;20602;-69
2023/08/28 06:19:27;;;;;;;2.47;2.27;;;;;;;;;;4899706;29;20634;-68
2023/08/28 06:21:55;;;;;;;2.20;2.00;;;;;;;;;;4870240;29;20649;-67
2023/08/28 06:24:23;;;;;;;3.03;2.70;;;;;;;;;;4885004;29;21259;-67
2023/08/28 06:26:52;;;;;;;1.90;1.80;;;;;;;;;;4880733;29;21231;-67
2023/08/28 06:29:20;;;;;;;4.00;2.30;;;;;;;;;;4870460;29;20969;-67
2023/08/28 06:31:48;;;;;;;2.80;2.20;;;;;;;;;;4872096;29;20635;-68
2023/08/28 06:34:18;;;;;;;2.23;2.03;;;;;;;;;;4887852;29;21179;-67
2023/08/28 06:36:49;;;;;;;3.10;2.30;;;;;;;;;;4889138;29;20634;-68
2023/08/28 06:39:18;;;;;;;4.07;2.27;;;;;;;;;;4897859;29;20584;-68
2023/08/28 06:41:49;;;;;;;3.63;2.17;;;;;;;;;;4893624;29;20626;-67
2023/08/28 06:44:17;;;;;;;3.20;2.17;;;;;;;;;;4880910;29;20641;-68
2023/08/28 06:46:45;;;;;;;2.40;2.20;;;;;;;;;;4882445;29;20639;-68
2023/08/28 06:49:13;;;;;;;3.97;2.47;;;;;;;;;;4881870;29;20605;-66
2023/08/28 06:51:43;;;;;;;6.80;2.80;;;;;;;;;;4895001;29;20701;-67
2023/08/28 06:54:11;;;;;;;2.90;2.40;;;;;;;;;;4883336;29;20672;-67
2023/08/28 06:56:39;;;;;;;4.70;2.47;;;;;;;;;;4899409;29;20684;-67
2023/08/28 06:59:08;;;;;;;4.00;2.00;;;;;;;;;;4898487;29;20609;-66
2023/08/28 07:01:36;;;;;;;2.50;2.40;;;;;;;;;;4875253;29;21797;-68
2023/08/28 07:04:05;;;;;;;2.70;2.10;;;;;;;;;;4884313;29;20697;-67
2023/08/28 07:06:33;;;;;;;3.17;2.53;;;;;;;;;;4879351;29;21159;-67
2023/08/28 07:09:02;;;;;;;2.47;2.27;;;;;;;;;;4896007;29;20656;-66
2023/08/28 07:11:31;;;;;;;2.70;2.07;;;;;;;;;;4879825;29;20611;-66
2023/08/28 07:13:59;;;;;;;5.03;2.40;;;;;;;;;;4896194;29;20626;-66
2023/08/28 07:16:28;;;;;;;3.97;2.10;;;;;;;;;;4895973;29;21219;-66
2023/08/28 07:18:56;;;;;;;7.63;2.37;;;;;;;;;;4896421;29;20634;-66
2023/08/28 07:21:24;;;;;;;3.30;2.40;;;;;;;;;;4896516;29;20609;-65
2023/08/28 07:23:52;;;;;;;3.03;2.50;;;;;;;;;;4896667;29;20609;-64
2023/08/28 07:26:22;;;;;;;6.33;2.10;;;;;;;;;;4895843;29;20678;-62
2023/08/28 07:28:50;;;;;;;8.03;2.43;;;;;;;;;;4898109;29;20589;-63
2023/08/28 07:31:19;;;;;;;4.83;2.00;;;;;;;;;;4897823;29;20638;-64
2023/08/28 07:33:47;;;;;;;2.47;1.80;;;;;;;;;;4897879;29;20611;-63
2023/08/28 07:36:21;;;;;;;4.40;2.00;;;;;;;;;;4880237;29;20616;-64
2023/08/28 07:38:50;;;;;;;3.47;2.00;;;;;;;;;;4896997;29;20575;-63
2023/08/28 07:41:19;;;;;;;2.37;1.80;;;;;;;;;;4905702;29;20692;-63
2023/08/28 07:43:49;;;;;;;2.30;1.80;;;;;;;;;;4906731;29;20620;-64
2023/08/28 07:46:17;;;;;;;3.37;1.60;;;;;;;;;;4877728;29;20645;-63
2023/08/28 07:48:45;;;;;;;3.67;2.00;;;;;;;;;;4877838;29;20753;-66
2023/08/28 07:51:14;;;;;;;3.13;1.77;;;;;;;;;;4891840;29;20680;-68
2023/08/28 07:53:42;;;;;;;5.37;2.17;;;;;;;;;;4896193;29;20626;-67
2023/08/28 07:56:10;;;;;;;3.97;1.60;;;;;;;;;;4894641;29;20804;-66
2023/08/28 07:58:38;;;;;;;2.10;1.50;;;;;;;;;;4892507;29;20364;-66
2023/08/28 08:01:10;;;;;;;10.63;2.27;;;;;;;;;;4893358;29;20606;-66
2023/08/28 08:03:39;;;;;;;2.03;1.73;;;;;;;;;;4889726;29;20662;-66
2023/08/28 08:06:08;;;;;;;2.10;1.90;;;;;;;;;;4875744;29;20718;-66
2023/08/28 08:08:37;;;;;;;1.70;1.60;;;;;;;;;;4883436;29;20978;-66
2023/08/28 08:11:05;;;;;;;2.27;1.57;;;;;;;;;;4875557;29;20658;-66
2023/08/28 08:13:33;;;;;;;2.23;2.03;;;;;;;;;;4882647;29;20589;-66
2023/08/28 08:16:02;;;;;;;2.03;1.60;;;;;;;;;;4869489;29;21199;-66
2023/08/28 08:18:31;;;;;;;2.23;1.73;;;;;;;;;;4886361;29;20590;-66
2023/08/28 08:21:00;;;;;;;2.10;1.90;;;;;;;;;;4882037;29;21051;-66
2023/08/28 08:23:28;;;;;;;1.80;1.70;;;;;;;;;;4877260;29;20627;-66
2023/08/28 08:25:56;;;;;;;2.47;2.37;;;;;;;;;;4876481;29;20671;-65
2023/08/28 08:28:24;;;;;;;6.00;1.97;;;;;;;;;;4877122;29;20626;-66
2023/08/28 08:30:53;;;;;;;2.07;1.70;;;;;;;;;;4877102;29;20634;-66
2023/08/28 08:33:21;;;;;;;2.30;1.33;;;;;;;;;;4877150;29;20985;-66
2023/08/28 08:35:50;;;;;;;3.00;2.13;;;;;;;;;;4877637;29;20627;-67
2023/08/28 08:38:19;;;;;;;3.00;2.00;;;;;;;;;;4877352;29;20623;-66
2023/08/28 08:40:52;;;;;;;3.30;1.73;;;;;;;;;;4876690;29;21198;-66
2023/08/28 08:43:20;;;;;;;2.40;1.70;;;;;;;;;;4877308;29;20647;-67
2023/08/28 08:45:50;;;;;;;2.60;1.97;;;;;;;;;;4876680;29;21278;-67
2023/08/28 08:48:21;;;;;;;4.00;1.70;;;;;;;;;;4877012;29;20590;-66
2023/08/28 08:50:51;;;;;;;6.27;2.03;;;;;;;;;;4877350;29;20599;-68
2023/08/28 08:53:24;;;;;;;2.20;2.00;;;;;;;;;;4876076;29;21113;-67
2023/08/28 08:55:53;;;;;;;2.40;1.57;;;;;;;;;;4844943;29;21151;-66
2023/08/28 08:58:22;;;;;;;2.13;1.93;;;;;;;;;;4859748;29;20623;-66
2023/08/28 09:00:51;;;;;;;2.20;2.00;;;;;;;;;;4876618;29;21148;-66
2023/08/28 09:03:21;;;;;;;4.80;2.17;;;;;;;;;;4886605;29;21205;-68
2023/08/28 09:05:51;;;;;;;2.30;2.10;;;;;;;;;;4894426;29;20644;-66
2023/08/28 09:08:23;;;;;;;1.97;1.87;;;;;;;;;;4895591;29;20579;-66
2023/08/28 09:10:51;;;;;;;2.00;1.90;;;;;;;;;;4895481;29;20598;-66
2023/08/28 09:13:19;;;;;;;2.17;1.73;;;;;;;;;;4895204;29;20980;-68
2023/08/28 09:15:48;;;;;;;11.10;2.40;;;;;;;;;;4894918;29;20997;-66
2023/08/28 09:18:16;;;;;;;5.10;1.70;;;;;;;;;;4895528;29;20610;-66
2023/08/28 09:20:44;;;;;;;5.73;2.60;;;;;;;;;;4895416;29;20673;-66
2023/08/28 09:23:14;;;;;;;1.50;1.40;;;;;;;;;;4896219;29;20596;-65
2023/08/28 09:25:42;;;;;;;3.40;2.13;;;;;;;;;;4898681;29;20661;-65
2023/08/28 09:28:13;;;;;;;2.20;2.10;;;;;;;;;;4898645;29;20605;-66
2023/08/28 09:30:42;;;;;;;2.80;2.53;;;;;;;;;;4899042;29;20566;-66
2023/08/28 09:33:11;;;;;;;3.23;3.00;;;;;;;;;;4899049;29;20613;-66
2023/08/28 09:35:40;;;;;;;2.60;1.90;;;;;;;;;;4898934;29;21244;-66
2023/08/28 09:38:09;;;;;;;2.43;2.27;;;;;;;;;;4899618;29;20628;-64
2023/08/28 09:40:39;;;;;;;3.57;2.13;;;;;;;;;;4881931;29;20641;-66
2023/08/28 09:43:12;;;;;;;2.73;2.20;;;;;;;;;;4899211;29;20681;-66
2023/08/28 09:45:41;;;;;;;2.70;2.50;;;;;;;;;;4898736;29;20965;-65
2023/08/28 09:48:10;;;;;;;4.60;2.10;;;;;;;;;;4894276;29;20632;-66
2023/08/28 09:50:39;;;;;;;3.40;2.50;;;;;;;;;;4897754;29;20995;-66
2023/08/28 09:53:08;;;;;;;4.03;2.90;;;;;;;;;;4898241;29;20689;-66
2023/08/28 09:55:41;;;;;;;2.83;2.53;;;;;;;;;;4882100;29;20618;-66
2023/08/28 09:58:10;;;;;;;11.27;3.60;;;;;;;;;;4897777;29;20980;-67
2023/08/28 10:00:39;;;;;;;4.27;3.03;;;;;;;;;;4881373;29;20628;-68
2023/08/28 10:03:08;;;;;;;3.83;3.30;;;;;;;;;;4897445;29;20622;-68
2023/08/28 10:05:38;;;;;;;3.17;2.97;;;;;;;;;;4883483;29;21263;-67
2023/08/28 10:08:07;;;;;;;3.20;2.83;;;;;;;;;;4897902;29;20681;-66
2023/08/28 10:10:35;;;;;;;4.07;2.63;;;;;;;;;;4898237;29;20980;-66
2023/08/28 10:13:06;;;;;;;3.97;2.93;;;;;;;;;;4893153;29;20637;-65
2023/08/28 10:15:35;;;;;;;7.30;2.47;;;;;;;;;;4898132;29;20610;-66
2023/08/28 10:18:06;;;;;;;6.93;3.23;;;;;;;;;;4898092;29;20995;-65
2023/08/28 10:20:34;;;;;;;3.50;3.20;;;;;;;;;;4876462;29;20614;-65
2023/08/28 10:23:03;;;;;;;3.50;2.90;;;;;;;;;;4879235;29;20732;-65
2023/08/28 10:25:32;;;;;;;3.20;2.90;;;;;;;;;;4879318;29;20638;-66
2023/08/28 10:28:00;;;;;;;2.83;2.50;;;;;;;;;;4878919;29;20623;-66
2023/08/28 10:30:30;;;;;;;2.93;2.60;;;;;;;;;;4866807;29;20997;-66
2023/08/28 10:33:00;;;;;;;7.47;3.33;;;;;;;;;;4879065;29;20633;-66
2023/08/28 10:35:29;;;;;;;7.17;3.63;;;;;;;;;;4878594;29;20618;-67
2023/08/28 10:37:58;;;;;;;6.83;3.50;;;;;;;;;;4878893;29;20627;-66
2023/08/28 10:40:26;;;;;;;3.87;3.57;;;;;;;;;;4890226;29;20623;-66
2023/08/28 10:42:55;;;;;;;6.23;3.50;;;;;;;;;;4897641;29;21196;-66
2023/08/28 10:45:23;;;;;;;4.47;3.50;;;;;;;;;;4898009;29;20616;-66
2023/08/28 10:47:53;;;;;;;3.97;3.67;;;;;;;;;;4892355;29;21173;-67
2023/08/28 10:50:21;;;;;;;3.90;3.57;;;;;;;;;;4897352;29;20627;-67
2023/08/28 10:52:49;;;;;;;3.93;3.07;;;;;;;;;;4898253;29;20630;-67
2023/08/28 10:55:18;;;;;;;4.53;3.77;;;;;;;;;;4898075;29;20622;-66
2023/08/28 10:57:50;;;;;;;4.87;3.13;;;;;;;;;;4897721;29;20623;-67
2023/08/28 11:00:20;;;;;;;4.00;3.63;;;;;;;;;;4897227;29;20595;-67
2023/08/28 11:03:07;;;;;;;5.33;3.93;;;;;;;;;;4896316;29;20997;-68
2023/08/28 11:05:39;;;;;;;4.20;3.90;;;;;;;;;;4883698;29;20631;-67
2023/08/28 11:08:08;;;;;;;4.90;3.70;;;;;;;;;;4878621;29;20646;-66
2023/08/28 11:10:37;;;;;;;6.73;3.33;;;;;;;;;;4878297;29;20611;-66
2023/08/28 11:13:06;;;;;;;3.97;3.67;;;;;;;;;;4862275;29;20627;-67
2023/08/28 11:15:35;;;;;;;4.40;3.83;;;;;;;;;;4862260;29;20631;-67
2023/08/28 11:18:27;;;;;;;4.10;3.70;;;;;;;;;;4879375;29;20634;-67
2023/08/28 11:20:57;;;;;;;4.70;4.40;;;;;;;;;;4878273;29;20599;-67
2023/08/28 11:23:26;;;;;;;4.70;4.50;;;;;;;;;;4878922;29;20607;-66
2023/08/28 11:25:55;;;;;;;4.90;4.60;;;;;;;;;;4878108;29;21197;-67
2023/08/28 11:28:29;;;;;;;6.07;4.40;;;;;;;;;;4878708;29;20623;-68
2023/08/28 11:30:59;;;;;;;5.27;4.87;;;;;;;;;;4878461;29;20944;-66
2023/08/28 11:33:28;;;;;;;5.67;5.37;;;;;;;;;;4862194;29;20595;-66
2023/08/28 11:36:01;;;;;;;5.63;5.23;;;;;;;;;;4878327;29;20615;-66
2023/08/28 11:38:30;;;;;;;6.67;6.23;;;;;;;;;;4873325;29;20618;-66
2023/08/28 11:40:59;;;;;;;5.80;5.27;;;;;;;;;;4896789;29;20630;-66
2023/08/28 11:43:28;;;;;;;5.77;5.10;;;;;;;;;;4897535;29;20625;-65
2023/08/28 11:45:59;;;;;;;5.83;5.10;;;;;;;;;;4896221;29;20650;-67
2023/08/28 11:48:28;;;;;;;5.90;5.03;;;;;;;;;;4897350;29;20629;-67
2023/08/28 11:51:01;;;;;;;5.20;4.90;;;;;;;;;;4879788;29;20681;-67
2023/08/28 11:53:30;;;;;;;5.40;5.00;;;;;;;;;;4896792;29;20645;-67
2023/08/28 11:55:58;;;;;;;6.17;5.50;;;;;;;;;;4895559;29;20614;-66
2023/08/28 11:58:26;;;;;;;5.40;5.10;;;;;;;;;;4897194;29;20614;-65
2023/08/28 12:00:54;;;;;;;5.60;5.30;;;;;;;;;;4896602;29;20625;-66
2023/08/28 12:03:23;;;;;;;5.77;5.23;;;;;;;;;;4895509;29;20713;-66
2023/08/28 12:05:51;;;;;;;6.30;5.73;;;;;;;;;;4895968;29;21180;-66
2023/08/28 12:08:21;;;;;;;6.40;6.00;;;;;;;;;;4896388;29;20650;-66
2023/08/28 12:10:49;;;;;;;6.30;5.43;;;;;;;;;;4863984;29;21018;-66
2023/08/28 12:13:20;;;;;;;5.50;5.30;;;;;;;;;;4895972;29;20629;-66
2023/08/28 12:15:49;;;;;;;6.00;5.60;;;;;;;;;;4879167;29;20582;-66
2023/08/28 12:18:17;;;;;;;6.27;5.87;;;;;;;;;;4864434;29;20610;-67
2023/08/28 12:20:45;;;;;;;6.23;5.63;;;;;;;;;;4895887;29;20629;-67
2023/08/28 12:23:14;;;;;;;6.03;5.73;;;;;;;;;;4879778;29;20622;-68
2023/08/28 12:25:43;;;;;;;5.77;5.47;;;;;;;;;;4896252;29;20630;-68
2023/08/28 12:28:13;;;;;;;5.47;5.27;;;;;;;;;;4897562;29;20987;-68
2023/08/28 12:30:42;;;;;;;5.70;5.30;;;;;;;;;;4880709;29;20604;-67
2023/08/28 12:33:10;;;;;;;6.47;6.17;;;;;;;;;;4877617;29;20623;-68
2023/08/28 12:35:39;;;;;;;5.67;5.37;;;;;;;;;;4876631;29;20620;-67
2023/08/28 12:38:08;;;;;;;5.30;5.00;;;;;;;;;;4876875;29;21234;-69
2023/08/28 12:40:37;;;;;;;5.30;4.80;;;;;;;;;;4876545;29;20619;-69
2023/08/28 12:43:11;;;;;;;4.83;4.57;;;;;;;;;;4877292;29;20674;-69
2023/08/28 12:45:39;;;;;;;4.20;4.00;;;;;;;;;;4876036;29;20615;-69
2023/08/28 12:48:07;;;;;;;4.73;4.33;;;;;;;;;;4877019;29;20643;-70
2023/08/28 12:50:36;;;;;;;6.07;5.00;;;;;;;;;;4879883;29;20639;-67
2023/08/28 12:53:05;;;;;;;4.60;4.40;;;;;;;;;;4876982;29;20630;-69
2023/08/28 12:55:33;;;;;;;4.73;4.43;;;;;;;;;;4876372;29;20641;-68
2023/08/28 12:58:01;;;;;;;5.33;5.00;;;;;;;;;;4877395;29;20626;-69
2023/08/28 13:00:31;;;;;;;6.30;5.70;;;;;;;;;;4880848;29;20614;-68
2023/08/28 13:02:59;;;;;;;5.23;4.87;;;;;;;;;;4879345;29;20627;-69
2023/08/28 13:05:28;;;;;;;5.90;4.87;;;;;;;;;;4879308;29;20619;-68
2023/08/28 13:07:56;;;;;;;5.07;4.87;;;;;;;;;;4890585;29;20670;-68
2023/08/28 13:10:24;;;;;;;5.47;5.10;;;;;;;;;;4899177;29;20939;-68
2023/08/28 13:12:52;;;;;;;5.50;5.13;;;;;;;;;;4890178;29;20702;-68
2023/08/28 13:15:20;;;;;;;5.90;5.43;;;;;;;;;;4880142;29;20627;-68
2023/08/28 13:17:50;;;;;;;5.40;5.10;;;;;;;;;;4893827;29;20630;-67
2023/08/28 13:20:20;;;;;;;5.20;4.90;;;;;;;;;;4893346;29;21049;-68
2023/08/28 13:22:49;;;;;;;5.27;4.77;;;;;;;;;;4888234;29;20632;-67
2023/08/28 13:25:17;;;;;;;5.17;4.77;;;;;;;;;;4896237;29;20660;-67
2023/08/28 13:27:46;;;;;;;4.80;4.60;;;;;;;;;;4881310;29;20679;-67
2023/08/28 13:30:14;;;;;;;4.50;4.20;;;;;;;;;;4879762;29;20619;-67
2023/08/28 13:32:46;;;;;;;5.13;4.70;;;;;;;;;;4863501;29;21027;-66
2023/08/28 13:35:16;;;;;;;5.17;4.77;;;;;;;;;;4888436;29;20633;-67
2023/08/28 13:37:44;;;;;;;4.33;3.87;;;;;;;;;;4885071;29;20622;-67
2023/08/28 13:40:13;;;;;;;5.00;4.47;;;;;;;;;;4894567;29;20629;-66
2023/08/28 13:42:41;;;;;;;4.60;4.20;;;;;;;;;;4894275;29;20634;-67
2023/08/28 13:45:10;;;;;;;4.00;3.90;;;;;;;;;;4889539;29;20631;-67
2023/08/28 13:47:38;;;;;;;4.20;4.00;;;;;;;;;;4895532;29;21331;-67
2023/08/28 13:50:07;;;;;;;4.07;3.77;;;;;;;;;;4875898;29;20619;-67
2023/08/28 13:52:36;;;;;;;5.60;3.83;;;;;;;;;;4868603;29;20639;-67
2023/08/28 13:55:05;;;;;;;3.90;3.80;;;;;;;;;;4889749;29;20646;-67
2023/08/28 13:57:34;;;;;;;4.10;3.90;;;;;;;;;;4892566;29;21145;-68
2023/08/28 14:00:03;;;;;;;4.10;3.90;;;;;;;;;;4897419;29;20634;-68
2023/08/28 14:02:41;;;;;;;5.07;4.73;;;;;;;;;;4896885;29;20610;-67
2023/08/28 14:05:12;;;;;;;5.40;4.37;;;;;;;;;;4895075;29;20658;-68
2023/08/28 14:07:41;;;;;;;4.43;4.03;;;;;;;;;;4897260;29;21318;-68
2023/08/28 14:10:10;;;;;;;4.03;3.83;;;;;;;;;;4880839;29;20982;-67
2023/08/28 14:12:39;;;;;;;4.50;4.20;;;;;;;;;;4897773;29;20987;-67
2023/08/28 14:15:07;;;;;;;4.07;3.90;;;;;;;;;;4897524;29;20630;-68
2023/08/28 14:17:36;;;;;;;3.83;3.70;;;;;;;;;;4895721;29;20634;-67
2023/08/28 14:20:05;;;;;;;4.30;3.70;;;;;;;;;;4887094;29;20638;-67
2023/08/28 14:22:33;;;;;;;4.13;3.90;;;;;;;;;;4866374;29;20627;-67
2023/08/28 14:25:04;;;;;;;4.13;3.87;;;;;;;;;;4879098;29;20634;-68
2023/08/28 14:27:32;;;;;;;4.40;4.10;;;;;;;;;;4891751;29;20602;-67
2023/08/28 14:30:01;;;;;;;4.43;4.00;;;;;;;;;;4897499;29;20625;-67
2023/08/28 14:32:34;;;;;;;4.00;3.90;;;;;;;;;;4897058;29;20657;-67
2023/08/28 14:35:03;;;;;;;3.93;3.83;;;;;;;;;;4895291;29;21004;-68
2023/08/28 14:37:31;;;;;;;4.17;3.97;;;;;;;;;;4887301;29;20640;-67
2023/08/28 14:40:00;;;;;;;7.10;3.93;;;;;;;;;;4891361;29;20992;-67
2023/08/28 14:42:30;;;;;;;3.90;3.60;;;;;;;;;;4896055;29;20634;-66
2023/08/28 14:44:58;;;;;;;4.13;3.93;;;;;;;;;;4894135;29;20717;-66
2023/08/28 14:47:26;;;;;;;3.77;3.67;;;;;;;;;;4896675;29;20759;-67
2023/08/28 14:49:54;;;;;;;3.83;3.73;;;;;;;;;;4879845;29;20625;-67
2023/08/28 14:52:23;;;;;;;3.80;3.70;;;;;;;;;;4890359;29;20609;-67
2023/08/28 14:54:51;;;;;;;4.33;3.97;;;;;;;;;;4896583;29;20636;-66